logo
Rechercher aéroport 
image banner adimage banner adimage banner ad
image banner ad

SCBN - Cotreumo

Situé à Rio Bueno, Chile

ICAO - SCBN, IATA -

Données fournies par Airmate  

Information générale

Coordonnées: S40°24'2" W72°39'41"
Élévation : 607 feet MSL.
Variation magnétique : 7° East
Voir autres Aéroports à Los Ríos

Données opérationnelles

Special qualification required
Heure actuelle UTC:
Heure actuelle locale:
METAR: SCJO 050200Z AUTO VRB03KT 9999 FEW170/// 13/09 Q1014
TAF: TAF SCJO 041730Z 0418/0506 18007KT CAVOK TX20/0419Z TN09/0505Z
Voir NOTAMs / SUP AIP / TFR affectant cet aéroport [VIEW]
Fréquences de communication: [VIEW]

Pistes:

Identifiant RWYQFULongueur (ft)Largeur (ft)SurfaceLDA (ft)
0225°197972GRAS
20205°197972GRAS

Coordonnées de l'aéroport

Adresse: Rio Bueno Chile

Vue satellite de SCBN